createdAt,value
2023-05-01T00:00:04.799Z,71.2
2023-05-01T00:03:03.379Z,71.8
2023-05-01T00:06:02.996Z,71.8
2023-05-01T00:09:02.878Z,71.8
2023-05-01T00:12:02.932Z,71.8
2023-05-01T00:15:02.926Z,71.8
2023-05-01T00:18:03.019Z,71.8
2023-05-01T00:21:02.868Z,71.8
2023-05-01T00:24:02.948Z,71.8
2023-05-01T00:27:02.917Z,71.8
2023-05-01T00:30:02.889Z,71.8
2023-05-01T00:33:03.221Z,71.8
2023-05-01T00:36:02.892Z,71.8
2023-05-01T00:39:02.895Z,72.6
2023-05-01T00:42:02.890Z,72.6
2023-05-01T00:45:02.959Z,72.6
2023-05-01T00:48:03.101Z,72.6
2023-05-01T00:51:02.909Z,73
2023-05-01T00:54:02.974Z,73
2023-05-01T00:57:02.935Z,73
2023-05-01T01:00:03.765Z,73
2023-05-01T01:03:03.013Z,73
2023-05-01T01:06:03.031Z,73
2023-05-01T01:09:02.862Z,73.5
2023-05-01T01:12:02.866Z,73.5
2023-05-01T01:15:02.941Z,73.5
2023-05-01T01:18:03.043Z,73.5
2023-05-01T01:21:02.876Z,73.5
2023-05-01T01:24:02.911Z,73.5
2023-05-01T01:27:02.904Z,73.5
2023-05-01T01:30:02.961Z,73.5
2023-05-01T01:33:03.033Z,73.5
2023-05-01T01:36:02.899Z,73.5
2023-05-01T01:39:02.839Z,73.5
2023-05-01T01:42:02.908Z,73.8
2023-05-01T01:45:02.961Z,73.8
2023-05-01T01:48:03.085Z,73.8
2023-05-01T01:51:02.915Z,73.8
2023-05-01T01:54:02.880Z,73.8
2023-05-01T01:57:02.893Z,73.8
2023-05-01T02:00:02.962Z,74.2
2023-05-01T02:03:03.131Z,74.2
2023-05-01T02:06:03.087Z,74.2
2023-05-01T02:09:02.947Z,74.2
2023-05-01T02:12:02.897Z,74.2
2023-05-01T02:15:03.125Z,74.2
2023-05-01T02:18:03.025Z,74.2
2023-05-01T02:21:02.945Z,74.2
2023-05-01T02:24:02.899Z,74.2
2023-05-01T02:27:02.890Z,74.2
2023-05-01T02:30:02.901Z,74.2
2023-05-01T02:33:03.103Z,74.2
2023-05-01T02:36:03.059Z,74.6
2023-05-01T02:39:02.910Z,74.6
2023-05-01T02:42:02.877Z,74.6
2023-05-01T02:45:02.926Z,74.6
2023-05-01T02:48:03.000Z,74.9
2023-05-01T02:51:02.906Z,74.9
2023-05-01T02:54:02.835Z,74.9
2023-05-01T02:57:03.022Z,74.9
2023-05-01T03:00:02.909Z,74.9
2023-05-01T03:03:03.644Z,74.9
2023-05-01T03:06:02.989Z,74.9
2023-05-01T03:09:02.860Z,75.1
2023-05-01T03:12:02.880Z,75.1
2023-05-01T03:15:02.860Z,75.1
2023-05-01T03:18:03.095Z,75.1
2023-05-01T03:21:02.855Z,75.1
2023-05-01T03:24:02.880Z,75.1
2023-05-01T03:27:02.842Z,75.1
2023-05-01T03:30:02.900Z,75.1
2023-05-01T03:33:03.012Z,75.1
2023-05-01T03:36:02.964Z,75.1
2023-05-01T03:39:02.857Z,75.1
2023-05-01T03:42:03.022Z,75.1
2023-05-01T03:45:02.951Z,75.1
2023-05-01T03:48:03.050Z,75.1
2023-05-01T03:51:02.957Z,75.1
2023-05-01T03:54:02.970Z,75.1
2023-05-01T03:57:02.950Z,75.1
2023-05-01T04:00:03.070Z,75.1
2023-05-01T04:03:03.549Z,75.1
2023-05-01T04:06:03.002Z,75.1
2023-05-01T04:09:02.989Z,77.3
2023-05-01T04:12:02.946Z,77.3
2023-05-01T04:15:02.955Z,77.3
2023-05-01T04:18:03.065Z,77.3
2023-05-01T04:21:02.930Z,77.3
2023-05-01T04:24:02.963Z,77.3
2023-05-01T04:27:02.933Z,77.3
2023-05-01T04:30:03.260Z,77.3
2023-05-01T04:33:03.003Z,77.3
2023-05-01T04:36:03.011Z,78.4
2023-05-01T04:39:03.511Z,78.4
2023-05-01T04:42:02.900Z,78.4
2023-05-01T04:45:03.150Z,78.4
2023-05-01T04:48:03.099Z,78.4
2023-05-01T04:51:03.031Z,78.4
2023-05-01T04:54:02.908Z,78.4
2023-05-01T04:57:02.949Z,78.4
2023-05-01T05:00:02.992Z,78.4
2023-05-01T05:03:03.382Z,78.4
2023-05-01T05:06:03.060Z,78.4
2023-05-01T05:09:02.955Z,78.4
2023-05-01T05:12:02.931Z,79
2023-05-01T05:15:02.939Z,79
2023-05-01T05:18:03.180Z,79
2023-05-01T05:21:02.964Z,79
2023-05-01T05:24:02.961Z,79
2023-05-01T05:27:02.928Z,78.8
2023-05-01T05:30:03.390Z,78.8
2023-05-01T05:33:03.205Z,78.8
2023-05-01T05:36:02.996Z,78.8
2023-05-01T05:39:03.050Z,78.8
2023-05-01T05:42:03.041Z,78.8
2023-05-01T05:45:02.948Z,78.8
2023-05-01T05:48:03.287Z,78.8
2023-05-01T05:51:02.976Z,78.8
2023-05-01T05:54:02.964Z,78.8
2023-05-01T05:57:03.007Z,78.8
2023-05-01T06:00:03.170Z,78.8
2023-05-01T06:03:03.368Z,78.8
2023-05-01T06:06:03.565Z,77.8
2023-05-01T06:09:03.386Z,77.8
2023-05-01T06:12:03.018Z,77.8
2023-05-01T06:15:03.075Z,77.8
2023-05-01T06:18:03.365Z,77.6
2023-05-01T06:21:02.992Z,77.5
2023-05-01T06:24:02.917Z,77.5
2023-05-01T06:27:03.908Z,77.5
2023-05-01T06:30:02.963Z,76.7
2023-05-01T06:33:03.207Z,76.7
2023-05-01T06:36:03.014Z,76.7
2023-05-01T06:39:02.961Z,75.8
2023-05-01T06:42:02.937Z,75.8
2023-05-01T06:45:03.003Z,75.8
2023-05-01T06:48:03.118Z,74.6
2023-05-01T06:51:02.949Z,74.6
2023-05-01T06:54:03.030Z,74.6
2023-05-01T06:57:02.932Z,75
2023-05-01T07:00:03.195Z,75
2023-05-01T07:03:03.032Z,75
2023-05-01T07:06:03.053Z,74.3
2023-05-01T07:09:03.064Z,74.3
2023-05-01T07:12:02.960Z,74.3
2023-05-01T07:15:02.979Z,73.8
2023-05-01T07:18:03.281Z,73.8
2023-05-01T07:21:02.897Z,68.7
2023-05-01T07:24:02.959Z,68.7
2023-05-01T07:27:02.879Z,68.7
2023-05-01T07:30:02.986Z,66.9
2023-05-01T07:33:03.141Z,66.9
2023-05-01T07:36:02.949Z,66.9
2023-05-01T07:39:03.035Z,65
2023-05-01T07:42:02.978Z,65
2023-05-01T07:45:03.139Z,65
2023-05-01T07:48:03.099Z,65
2023-05-01T07:51:02.899Z,63.7
2023-05-01T07:54:02.953Z,63.7
2023-05-01T07:57:02.908Z,63.7
2023-05-01T08:00:03.010Z,62
2023-05-01T08:03:03.215Z,62
2023-05-01T08:06:03.195Z,62
2023-05-01T08:09:02.982Z,62
2023-05-01T08:12:02.934Z,61.8
2023-05-01T08:15:02.958Z,61.8
2023-05-01T08:18:03.084Z,61.8
2023-05-01T08:21:02.996Z,61.8
2023-05-01T08:24:03.018Z,61.8
2023-05-01T08:27:02.908Z,61.2
2023-05-01T08:30:02.957Z,61.2
2023-05-01T08:33:03.055Z,61.2
2023-05-01T08:36:03.206Z,61.2
2023-05-01T08:39:02.907Z,61.2
2023-05-01T08:42:02.897Z,61.2
2023-05-01T08:45:02.976Z,59.5
2023-05-01T08:48:03.092Z,59.5
2023-05-01T08:51:02.975Z,59.5
2023-05-01T08:54:02.939Z,59.5
2023-05-01T08:57:02.978Z,59.5
2023-05-01T09:00:03.010Z,58.9
2023-05-01T09:03:03.415Z,58.9
2023-05-01T09:06:03.102Z,58.9
2023-05-01T09:09:02.924Z,58.9
2023-05-01T09:12:02.895Z,58
2023-05-01T09:15:02.949Z,58
2023-05-01T09:18:06.273Z,58
2023-05-01T09:21:02.980Z,58
2023-05-01T09:24:02.948Z,58
2023-05-01T09:27:02.890Z,58
2023-05-01T09:30:02.990Z,57.1
2023-05-01T09:33:03.101Z,57.1
2023-05-01T09:36:02.915Z,57.1
2023-05-01T09:39:03.030Z,57.1
2023-05-01T09:42:02.871Z,57.1
2023-05-01T09:45:02.973Z,57.1
2023-05-01T09:48:03.026Z,56.1
2023-05-01T09:51:02.980Z,56.1
2023-05-01T09:54:03.063Z,56.1
2023-05-01T09:57:02.923Z,56.1
2023-05-01T10:00:03.021Z,54.8
2023-05-01T10:03:03.236Z,54.8
2023-05-01T10:06:03.063Z,54.8
2023-05-01T10:09:02.951Z,54.8
2023-05-01T10:12:02.976Z,54.8
2023-05-01T10:15:26.832Z,53.8
2023-05-01T10:18:03.107Z,53.8
2023-05-01T10:21:02.935Z,53.8
2023-05-01T10:24:02.888Z,53.8
2023-05-01T10:27:02.920Z,53.8
2023-05-01T10:30:02.944Z,53.8
2023-05-01T10:33:03.114Z,52.8
2023-05-01T10:36:02.948Z,52.8
2023-05-01T10:39:02.908Z,52.8
2023-05-01T10:42:02.908Z,52.8
2023-05-01T10:45:02.989Z,52.8
2023-05-01T10:48:03.066Z,52.8
2023-05-01T10:51:02.971Z,52.8
2023-05-01T10:54:02.975Z,52.4
2023-05-01T10:57:02.928Z,52.4
2023-05-01T11:00:03.052Z,52.4
2023-05-01T11:03:03.040Z,52.4
2023-05-01T11:06:03.799Z,52.4
2023-05-01T11:09:03.032Z,52.4
2023-05-01T11:12:03.022Z,52.4
2023-05-01T11:15:02.892Z,52.4
2023-05-01T11:18:03.162Z,52.4
2023-05-01T11:21:02.935Z,51.7
2023-05-01T11:24:03.032Z,51.7
2023-05-01T11:27:02.969Z,51.7
2023-05-01T11:30:02.987Z,51.7
2023-05-01T11:33:03.201Z,51.7
2023-05-01T11:36:03.002Z,51.7
2023-05-01T11:39:02.917Z,51.7
2023-05-01T11:42:03.050Z,51.7
2023-05-01T11:45:03.023Z,51.7
2023-05-01T11:48:07.235Z,51.5
2023-05-01T11:51:02.996Z,51.5
2023-05-01T11:54:03.004Z,51.5
2023-05-01T11:57:02.879Z,51.5
2023-05-01T12:00:03.095Z,51.5
2023-05-01T12:03:03.659Z,51.5
2023-05-01T12:06:03.112Z,51.5
2023-05-01T12:09:02.944Z,51.5
2023-05-01T12:12:02.936Z,50.8
2023-05-01T12:15:03.248Z,50.8
2023-05-01T12:18:03.085Z,50.8
2023-05-01T12:21:02.980Z,50.8
2023-05-01T12:24:02.935Z,50.8
2023-05-01T12:27:02.987Z,50.8
2023-05-01T12:30:03.097Z,50.8
2023-05-01T12:33:03.219Z,50.8
2023-05-01T12:36:02.957Z,50.2
2023-05-01T12:39:03.011Z,50.2
2023-05-01T12:42:03.001Z,50.2
2023-05-01T12:45:03.450Z,50.2
2023-05-01T12:48:03.018Z,50.2
2023-05-01T12:51:03.035Z,50.2
2023-05-01T12:54:03.013Z,50.2
2023-05-01T12:57:02.954Z,50.2
2023-05-01T13:00:03.551Z,50.2
2023-05-01T13:03:03.058Z,50.2
2023-05-01T13:06:03.309Z,50.2
2023-05-01T13:09:02.965Z,49.1
2023-05-01T13:12:02.946Z,49.1
2023-05-01T13:15:02.980Z,49.1
2023-05-01T13:18:03.083Z,49.1
2023-05-01T13:21:03.278Z,49.1
2023-05-01T13:24:03.088Z,49.1
2023-05-01T13:27:07.008Z,49.8
2023-05-01T13:30:03.936Z,49.8
2023-05-01T13:33:03.145Z,49.8
2023-05-01T13:36:22.057Z,49.8
2023-05-01T13:39:03.033Z,49.8
2023-05-01T13:42:03.065Z,49.8
2023-05-01T13:45:02.982Z,49.8
2023-05-01T13:48:03.210Z,49.8
2023-05-01T13:51:03.028Z,49.8
2023-05-01T13:54:03.014Z,49.8
2023-05-01T13:57:02.939Z,49.8
2023-05-01T14:00:03.096Z,49.8
2023-05-01T14:03:03.247Z,49.8
2023-05-01T14:06:03.191Z,49.8
2023-05-01T14:09:02.989Z,49.8
2023-05-01T14:12:03.027Z,49.8
2023-05-01T14:15:04.514Z,49.8
2023-05-01T14:18:03.344Z,49.8
2023-05-01T14:21:03.034Z,49.8
2023-05-01T14:24:02.976Z,49.8
2023-05-01T14:27:03.107Z,49.8
2023-05-01T14:30:03.082Z,49.8
2023-05-01T14:33:03.086Z,49.8
2023-05-01T14:36:02.960Z,49.8
2023-05-01T14:39:02.967Z,49.8
2023-05-01T14:42:02.941Z,46.5
2023-05-01T14:45:03.295Z,46.5
2023-05-01T14:48:03.200Z,46.5
2023-05-01T14:51:02.964Z,46.5
2023-05-01T14:54:02.904Z,46.5
2023-05-01T14:57:02.978Z,46.5
2023-05-01T15:00:03.252Z,46.5
2023-05-01T15:03:03.203Z,46.5
2023-05-01T15:06:03.082Z,46.5
2023-05-01T15:09:02.948Z,46.5
2023-05-01T15:12:04.012Z,46.5
2023-05-01T15:15:03.165Z,46.5
2023-05-01T15:18:03.154Z,46.5
2023-05-01T15:21:02.915Z,46.5
2023-05-01T15:24:02.976Z,46.5
2023-05-01T15:27:02.961Z,46.5
2023-05-01T15:30:03.150Z,46.5
2023-05-01T15:33:03.116Z,46.5
2023-05-01T15:36:02.975Z,46.5
2023-05-01T15:39:03.083Z,46.5
2023-05-01T15:42:03.023Z,46.5
2023-05-01T15:45:03.372Z,46.5
2023-05-01T15:48:03.335Z,46.5
2023-05-01T15:51:02.997Z,46.5
2023-05-01T15:54:02.977Z,46.5
2023-05-01T15:57:02.956Z,46.5
2023-05-01T16:00:04.031Z,46.5
2023-05-01T16:03:03.343Z,46.5
2023-05-01T16:06:03.157Z,46.5
2023-05-01T16:09:02.906Z,46.5
2023-05-01T16:12:03.304Z,46.5
2023-05-01T16:15:03.050Z,46.5
2023-05-01T16:18:03.094Z,46.5
2023-05-01T16:21:02.949Z,46.5
2023-05-01T16:24:02.988Z,46.5
2023-05-01T16:27:02.916Z,46.5
2023-05-01T16:30:03.920Z,46.5
2023-05-01T16:33:03.148Z,46.5
2023-05-01T16:36:03.320Z,46.5
2023-05-01T16:39:02.971Z,46.5
2023-05-01T16:42:02.936Z,46.5
2023-05-01T16:45:02.996Z,46.5
2023-05-01T16:48:03.141Z,46.5
2023-05-01T16:51:02.961Z,46.5
2023-05-01T16:54:02.908Z,46.5
2023-05-01T16:57:02.951Z,46.5
2023-05-01T17:00:04.117Z,46.5
2023-05-01T17:03:03.115Z,46.5
2023-05-01T17:06:03.032Z,52.7
2023-05-01T17:09:02.978Z,52.7
2023-05-01T17:12:02.945Z,52.7
2023-05-01T17:15:02.999Z,52.7
2023-05-01T17:18:03.138Z,52.7
2023-05-01T17:21:03.006Z,52.7
2023-05-01T17:24:03.004Z,52.7
2023-05-01T17:27:02.969Z,52.7
2023-05-01T17:30:04.012Z,52.7
2023-05-01T17:33:03.388Z,52.7
2023-05-01T17:36:03.148Z,52.7
2023-05-01T17:39:02.947Z,52.7
2023-05-01T17:42:03.055Z,52.7
2023-05-01T17:45:02.980Z,52.7
2023-05-01T17:48:03.311Z,52.7
2023-05-01T17:51:02.967Z,52.7
2023-05-01T17:54:02.946Z,52.7
2023-05-01T17:57:02.926Z,52.7
2023-05-01T18:00:04.622Z,52.7
2023-05-01T18:03:03.399Z,52.7
2023-05-01T18:06:03.119Z,52.7
2023-05-01T18:09:02.956Z,55.8
2023-05-01T18:12:03.037Z,55.8
2023-05-01T18:15:02.894Z,55.8
2023-05-01T18:18:03.777Z,55.8
2023-05-01T18:21:02.904Z,55.8
2023-05-01T18:24:02.988Z,55.8
2023-05-01T18:27:02.912Z,55.8
2023-05-01T18:30:03.875Z,55.8
2023-05-01T18:33:02.981Z,55.8
2023-05-01T18:36:02.958Z,55.8
2023-05-01T18:39:02.892Z,55.8
2023-05-01T18:42:02.967Z,55.8
2023-05-01T18:45:02.970Z,55.8
2023-05-01T18:48:03.326Z,55.8
2023-05-01T18:51:11.818Z,55.8
2023-05-01T18:54:06.880Z,55.8
2023-05-01T18:57:02.942Z,55.8
2023-05-01T19:00:03.923Z,55.8
2023-05-01T19:03:03.086Z,55.8
2023-05-01T19:06:03.820Z,55.8
2023-05-01T19:09:02.884Z,55.8
2023-05-01T19:12:02.847Z,55.8
2023-05-01T19:15:03.060Z,55.8
2023-05-01T19:18:03.024Z,55.8
2023-05-01T19:21:02.943Z,55.8
2023-05-01T19:24:03.002Z,55.8
2023-05-01T19:27:02.894Z,55.8
2023-05-01T19:30:04.187Z,55.8
2023-05-01T19:33:03.160Z,55.8
2023-05-01T19:36:02.936Z,55.8
2023-05-01T19:39:02.867Z,55.8
2023-05-01T19:42:02.869Z,55.8
2023-05-01T19:45:02.907Z,55.8
2023-05-01T19:48:03.100Z,55.8
2023-05-01T19:51:02.944Z,55.8
2023-05-01T19:54:02.894Z,55.8
2023-05-01T19:57:02.965Z,55.8
2023-05-01T20:00:03.732Z,55.8
2023-05-01T20:03:03.214Z,55.8
2023-05-01T20:06:03.118Z,55.8
2023-05-01T20:09:02.912Z,55.8
2023-05-01T20:12:02.985Z,55.8
2023-05-01T20:15:02.947Z,55.8
2023-05-01T20:18:03.074Z,55.8
2023-05-01T20:21:02.879Z,55.8
2023-05-01T20:24:03.019Z,55.8
2023-05-01T20:27:02.970Z,55.8
2023-05-01T20:30:03.596Z,55.8
2023-05-01T20:33:03.099Z,55.8
2023-05-01T20:36:03.026Z,55.8
2023-05-01T20:39:02.896Z,55.8
2023-05-01T20:42:02.958Z,55.8
2023-05-01T20:45:03.027Z,55.8
2023-05-01T20:48:03.033Z,55.8
2023-05-01T20:51:02.927Z,55.8
2023-05-01T20:54:02.922Z,55.8
2023-05-01T20:57:02.949Z,55.8
2023-05-01T21:00:04.140Z,55.8
2023-05-01T21:03:03.296Z,55.8
2023-05-01T21:06:03.080Z,55.8
2023-05-01T21:09:02.921Z,55.8
2023-05-01T21:12:02.892Z,55.8
2023-05-01T21:15:02.945Z,55.8
2023-05-01T21:18:03.032Z,55.8
2023-05-01T21:21:02.896Z,55.8
2023-05-01T21:24:02.960Z,55.8
2023-05-01T21:27:02.938Z,55.8
2023-05-01T21:30:03.951Z,55.8
2023-05-01T21:33:03.052Z,55.8
2023-05-01T21:36:03.042Z,55.8
2023-05-01T21:39:02.972Z,55.8
2023-05-01T21:42:02.976Z,55.8
2023-05-01T21:45:03.003Z,55.8
2023-05-01T21:48:03.108Z,55.8
2023-05-01T21:51:03.076Z,55.8
2023-05-01T21:54:02.976Z,55.8
2023-05-01T21:57:02.987Z,55.8
2023-05-01T22:00:04.085Z,55.8
2023-05-01T22:03:03.380Z,55.8
2023-05-01T22:06:03.063Z,55.8
2023-05-01T22:09:03.044Z,55.8
2023-05-01T22:12:02.918Z,55.8
2023-05-01T22:15:03.091Z,55.8
2023-05-01T22:18:03.145Z,55.8
2023-05-01T22:21:02.958Z,55.8
2023-05-01T22:24:02.959Z,55.8
2023-05-01T22:27:02.933Z,55.8
2023-05-01T22:30:04.222Z,55.8
2023-05-01T22:33:03.192Z,55.8
2023-05-01T22:36:04.271Z,55.8
2023-05-01T22:39:02.946Z,55.8
2023-05-01T22:42:03.038Z,55.8
2023-05-01T22:45:02.946Z,55.8
2023-05-01T22:48:03.281Z,55.8
2023-05-01T22:51:02.993Z,55.8
2023-05-01T22:54:02.935Z,55.8
2023-05-01T22:57:03.023Z,55.8
2023-05-01T23:00:04.096Z,55.8
2023-05-01T23:03:03.191Z,55.8
2023-05-01T23:06:03.086Z,55.8
2023-05-01T23:09:02.992Z,55.8
2023-05-01T23:12:03.039Z,55.8
2023-05-01T23:15:03.077Z,55.8
2023-05-01T23:18:03.091Z,55.8
2023-05-01T23:21:02.986Z,55.8
2023-05-01T23:24:03.297Z,55.8
2023-05-01T23:27:02.885Z,73.4
2023-05-01T23:30:04.028Z,73.4
2023-05-01T23:33:03.064Z,73.4
2023-05-01T23:36:03.017Z,73.4
2023-05-01T23:39:02.951Z,73.4
2023-05-01T23:42:02.967Z,73.4
2023-05-01T23:45:03.053Z,73.4
2023-05-01T23:48:03.234Z,73.4
2023-05-01T23:51:02.972Z,73.4
2023-05-01T23:54:02.955Z,73.4
2023-05-01T23:57:03.008Z,73.4
